Terminal Aerodrome Forecast
Issued by NWS Mt. Holly, NJ

Home | Current Version | Previous Version | Text Only | Print | Product List | Glossary On
Versions: 1 2 3 4 5 6 7 8 9 10 11 12 13 14 15 16
000
FTUS41 KPHI 111120
TAFTTN
TAF
KTTN 111120Z 1112/1212 24004KT P6SM BKN060
     FM111400 27009KT P6SM SCT060 SCT250
     FM112200 22005KT P6SM BKN250
     FM120100 VRB02KT P6SM BKN100
     FM121000 13005KT P6SM OVC090=

USA.gov is the U.S. government's official web portal to all federal, state and local government web resources and services.